Woodstock, Canada
Current Conditions -  °F | °C
As of 2:53 PM on Monday 20 Oct 2014 (Local Time) from KHUL Reporting Station
Broken Clouds Broken Clouds  
Wind Chill: 36°   Ceiling: 3900
Heat Index: 44°   Visibility: 10mi
Dew Point: 26°   Wind: 17mph
Humidity: 49%   Direction: 250°WSW
Pressure: 29.82"   Gusts: 22mph
Location:  46.15°N, 67.58°W
Report Text: KHUL 201753Z AUTO 25015G19KT 10SM BKN039 07/M03 A2982 RMK AO2 SLP103 T00671033 10067 20022 55005
Loading
Personal Weather Stations






























Interactive Weather Map New forecast layout! Learn more

10-Day Weather Forecast

Advertisements
Track Severe Weather on mobile